sensor_id;sensor_type;location;lat;lon;timestamp;P1;durP1;ratioP1;P2;durP2;ratioP2
21697;SDS011;11010;49.548;11.926;2023-04-15T00:01:02;8.20;;;2.77;;
21697;SDS011;11010;49.548;11.926;2023-04-15T00:03:31;10.60;;;3.00;;
21697;SDS011;11010;49.548;11.926;2023-04-15T00:06:00;9.13;;;3.23;;
21697;SDS011;11010;49.548;11.926;2023-04-15T00:08:27;10.03;;;3.60;;
21697;SDS011;11010;49.548;11.926;2023-04-15T00:10:55;7.57;;;3.13;;
21697;SDS011;11010;49.548;11.926;2023-04-15T00:13:24;9.50;;;3.70;;
21697;SDS011;11010;49.548;11.926;2023-04-15T00:15:51;8.70;;;2.90;;
21697;SDS011;11010;49.548;11.926;2023-04-15T00:18:18;8.73;;;3.40;;
21697;SDS011;11010;49.548;11.926;2023-04-15T00:20:45;7.50;;;3.07;;
21697;SDS011;11010;49.548;11.926;2023-04-15T00:23:13;8.50;;;3.53;;
21697;SDS011;11010;49.548;11.926;2023-04-15T00:25:40;8.63;;;3.40;;
21697;SDS011;11010;49.548;11.926;2023-04-15T00:28:07;8.90;;;3.40;;
21697;SDS011;11010;49.548;11.926;2023-04-15T00:30:34;8.70;;;3.30;;
21697;SDS011;11010;49.548;11.926;2023-04-15T00:33:01;9.00;;;3.50;;
21697;SDS011;11010;49.548;11.926;2023-04-15T00:35:29;9.50;;;3.90;;
21697;SDS011;11010;49.548;11.926;2023-04-15T00:37:59;9.03;;;3.63;;
21697;SDS011;11010;49.548;11.926;2023-04-15T00:40:26;8.47;;;3.43;;
21697;SDS011;11010;49.548;11.926;2023-04-15T00:42:56;8.77;;;3.37;;
21697;SDS011;11010;49.548;11.926;2023-04-15T00:45:24;8.53;;;3.37;;
21697;SDS011;11010;49.548;11.926;2023-04-15T00:47:52;8.90;;;3.43;;
21697;SDS011;11010;49.548;11.926;2023-04-15T00:50:19;9.60;;;3.87;;
21697;SDS011;11010;49.548;11.926;2023-04-15T00:52:47;7.50;;;3.00;;
21697;SDS011;11010;49.548;11.926;2023-04-15T00:55:14;9.13;;;3.40;;
21697;SDS011;11010;49.548;11.926;2023-04-15T00:57:41;9.23;;;3.70;;
21697;SDS011;11010;49.548;11.926;2023-04-15T01:00:09;9.30;;;3.80;;
21697;SDS011;11010;49.548;11.926;2023-04-15T01:02:37;9.17;;;3.70;;
21697;SDS011;11010;49.548;11.926;2023-04-15T01:05:05;7.60;;;3.20;;
21697;SDS011;11010;49.548;11.926;2023-04-15T01:07:33;8.50;;;3.50;;
21697;SDS011;11010;49.548;11.926;2023-04-15T01:10:01;9.03;;;3.43;;
21697;SDS011;11010;49.548;11.926;2023-04-15T01:12:29;7.93;;;3.17;;
21697;SDS011;11010;49.548;11.926;2023-04-15T01:14:58;10.30;;;3.60;;
21697;SDS011;11010;49.548;11.926;2023-04-15T01:17:26;8.07;;;3.27;;
21697;SDS011;11010;49.548;11.926;2023-04-15T01:19:54;8.40;;;3.13;;
21697;SDS011;11010;49.548;11.926;2023-04-15T01:22:23;8.43;;;3.63;;
21697;SDS011;11010;49.548;11.926;2023-04-15T01:27:58;9.00;;;3.03;;
21697;SDS011;11010;49.548;11.926;2023-04-15T01:30:26;7.10;;;2.80;;
21697;SDS011;11010;49.548;11.926;2023-04-15T01:32:53;8.13;;;3.40;;
21697;SDS011;11010;49.548;11.926;2023-04-15T01:35:20;8.43;;;3.37;;
21697;SDS011;11010;49.548;11.926;2023-04-15T01:37:50;7.70;;;3.03;;
21697;SDS011;11010;49.548;11.926;2023-04-15T01:40:17;7.87;;;3.13;;
21697;SDS011;11010;49.548;11.926;2023-04-15T01:42:45;8.53;;;3.40;;
21697;SDS011;11010;49.548;11.926;2023-04-15T01:45:13;8.43;;;2.97;;
21697;SDS011;11010;49.548;11.926;2023-04-15T01:47:40;7.67;;;2.90;;
21697;SDS011;11010;49.548;11.926;2023-04-15T01:50:08;8.73;;;2.90;;
21697;SDS011;11010;49.548;11.926;2023-04-15T01:52:36;7.97;;;3.10;;
21697;SDS011;11010;49.548;11.926;2023-04-15T01:55:03;7.70;;;3.27;;
21697;SDS011;11010;49.548;11.926;2023-04-15T01:57:31;7.97;;;3.17;;
21697;SDS011;11010;49.548;11.926;2023-04-15T01:59:59;8.47;;;3.00;;
21697;SDS011;11010;49.548;11.926;2023-04-15T02:02:26;9.27;;;3.27;;
21697;SDS011;11010;49.548;11.926;2023-04-15T02:04:55;9.07;;;3.17;;
21697;SDS011;11010;49.548;11.926;2023-04-15T02:07:22;7.97;;;3.27;;
21697;SDS011;11010;49.548;11.926;2023-04-15T02:09:49;8.10;;;3.23;;
21697;SDS011;11010;49.548;11.926;2023-04-15T02:12:16;9.20;;;3.20;;
21697;SDS011;11010;49.548;11.926;2023-04-15T02:14:44;9.00;;;3.07;;
21697;SDS011;11010;49.548;11.926;2023-04-15T02:17:11;7.57;;;2.97;;
21697;SDS011;11010;49.548;11.926;2023-04-15T02:19:38;8.13;;;3.07;;
21697;SDS011;11010;49.548;11.926;2023-04-15T02:22:05;8.73;;;3.13;;
21697;SDS011;11010;49.548;11.926;2023-04-15T02:24:34;8.60;;;3.00;;
21697;SDS011;11010;49.548;11.926;2023-04-15T02:27:01;8.30;;;3.30;;
21697;SDS011;11010;49.548;11.926;2023-04-15T02:29:30;8.40;;;3.53;;
21697;SDS011;11010;49.548;11.926;2023-04-15T02:31:59;8.27;;;3.27;;
21697;SDS011;11010;49.548;11.926;2023-04-15T02:34:26;8.67;;;3.50;;
21697;SDS011;11010;49.548;11.926;2023-04-15T02:36:56;8.33;;;3.30;;
21697;SDS011;11010;49.548;11.926;2023-04-15T02:39:23;9.07;;;3.00;;
21697;SDS011;11010;49.548;11.926;2023-04-15T02:41:50;8.10;;;3.13;;
21697;SDS011;11010;49.548;11.926;2023-04-15T02:44:18;9.00;;;3.40;;
21697;SDS011;11010;49.548;11.926;2023-04-15T02:46:48;8.83;;;3.30;;
21697;SDS011;11010;49.548;11.926;2023-04-15T02:49:20;7.90;;;3.23;;
21697;SDS011;11010;49.548;11.926;2023-04-15T02:51:48;8.20;;;3.40;;
21697;SDS011;11010;49.548;11.926;2023-04-15T02:54:19;7.73;;;3.20;;
21697;SDS011;11010;49.548;11.926;2023-04-15T02:56:48;8.17;;;3.20;;
21697;SDS011;11010;49.548;11.926;2023-04-15T02:59:16;9.13;;;3.50;;
21697;SDS011;11010;49.548;11.926;2023-04-15T03:01:43;8.00;;;3.20;;
21697;SDS011;11010;49.548;11.926;2023-04-15T03:04:10;8.97;;;3.43;;
21697;SDS011;11010;49.548;11.926;2023-04-15T03:06:38;10.77;;;3.50;;
21697;SDS011;11010;49.548;11.926;2023-04-15T03:09:07;8.50;;;3.30;;
21697;SDS011;11010;49.548;11.926;2023-04-15T03:11:35;7.73;;;3.20;;
21697;SDS011;11010;49.548;11.926;2023-04-15T03:14:07;8.93;;;3.23;;
21697;SDS011;11010;49.548;11.926;2023-04-15T03:16:38;8.07;;;3.47;;
21697;SDS011;11010;49.548;11.926;2023-04-15T03:19:05;8.97;;;3.50;;
21697;SDS011;11010;49.548;11.926;2023-04-15T03:21:33;9.10;;;3.47;;
21697;SDS011;11010;49.548;11.926;2023-04-15T03:24:00;8.50;;;3.20;;
21697;SDS011;11010;49.548;11.926;2023-04-15T03:26:28;9.77;;;3.20;;
21697;SDS011;11010;49.548;11.926;2023-04-15T03:29:04;8.43;;;3.10;;
21697;SDS011;11010;49.548;11.926;2023-04-15T03:31:32;8.40;;;3.27;;
21697;SDS011;11010;49.548;11.926;2023-04-15T03:33:59;8.90;;;3.17;;
21697;SDS011;11010;49.548;11.926;2023-04-15T03:36:28;7.97;;;3.20;;
21697;SDS011;11010;49.548;11.926;2023-04-15T03:38:58;9.50;;;3.47;;
21697;SDS011;11010;49.548;11.926;2023-04-15T03:41:27;8.90;;;3.50;;
21697;SDS011;11010;49.548;11.926;2023-04-15T03:43:54;9.17;;;3.47;;
21697;SDS011;11010;49.548;11.926;2023-04-15T03:46:22;8.97;;;3.37;;
21697;SDS011;11010;49.548;11.926;2023-04-15T03:48:49;9.00;;;3.70;;
21697;SDS011;11010;49.548;11.926;2023-04-15T03:51:16;8.43;;;3.50;;
21697;SDS011;11010;49.548;11.926;2023-04-15T03:53:43;8.33;;;3.40;;
21697;SDS011;11010;49.548;11.926;2023-04-15T03:56:10;7.60;;;2.90;;
21697;SDS011;11010;49.548;11.926;2023-04-15T03:58:37;9.33;;;3.10;;
21697;SDS011;11010;49.548;11.926;2023-04-15T04:01:04;7.73;;;2.97;;
21697;SDS011;11010;49.548;11.926;2023-04-15T04:03:31;8.93;;;3.27;;
21697;SDS011;11010;49.548;11.926;2023-04-15T04:05:59;8.50;;;3.37;;
21697;SDS011;11010;49.548;11.926;2023-04-15T04:08:26;9.43;;;3.67;;
21697;SDS011;11010;49.548;11.926;2023-04-15T04:10:53;9.23;;;3.50;;
21697;SDS011;11010;49.548;11.926;2023-04-15T04:13:20;8.60;;;3.23;;
21697;SDS011;11010;49.548;11.926;2023-04-15T04:15:47;8.50;;;3.13;;
21697;SDS011;11010;49.548;11.926;2023-04-15T04:18:14;9.53;;;3.43;;
21697;SDS011;11010;49.548;11.926;2023-04-15T04:20:42;8.50;;;3.50;;
21697;SDS011;11010;49.548;11.926;2023-04-15T04:23:09;8.23;;;3.10;;
21697;SDS011;11010;49.548;11.926;2023-04-15T04:25:36;10.23;;;3.57;;
21697;SDS011;11010;49.548;11.926;2023-04-15T04:28:04;8.70;;;3.30;;
21697;SDS011;11010;49.548;11.926;2023-04-15T04:30:31;8.33;;;3.17;;
21697;SDS011;11010;49.548;11.926;2023-04-15T04:32:58;8.27;;;3.20;;
21697;SDS011;11010;49.548;11.926;2023-04-15T04:35:25;9.43;;;3.67;;
21697;SDS011;11010;49.548;11.926;2023-04-15T04:37:53;8.47;;;3.20;;
21697;SDS011;11010;49.548;11.926;2023-04-15T04:40:20;9.00;;;3.77;;
21697;SDS011;11010;49.548;11.926;2023-04-15T04:42:47;8.33;;;3.37;;
21697;SDS011;11010;49.548;11.926;2023-04-15T04:45:14;9.13;;;3.53;;
21697;SDS011;11010;49.548;11.926;2023-04-15T04:47:41;8.37;;;3.30;;
21697;SDS011;11010;49.548;11.926;2023-04-15T04:50:08;12.00;;;3.40;;
21697;SDS011;11010;49.548;11.926;2023-04-15T04:52:35;7.93;;;3.20;;
21697;SDS011;11010;49.548;11.926;2023-04-15T04:55:03;8.00;;;3.10;;
21697;SDS011;11010;49.548;11.926;2023-04-15T04:57:30;9.03;;;3.30;;
21697;SDS011;11010;49.548;11.926;2023-04-15T04:59:57;8.40;;;3.40;;
21697;SDS011;11010;49.548;11.926;2023-04-15T05:02:24;9.53;;;3.37;;
21697;SDS011;11010;49.548;11.926;2023-04-15T05:04:53;8.00;;;3.17;;
21697;SDS011;11010;49.548;11.926;2023-04-15T05:07:20;9.03;;;3.40;;
21697;SDS011;11010;49.548;11.926;2023-04-15T05:09:47;9.37;;;3.60;;
21697;SDS011;11010;49.548;11.926;2023-04-15T05:12:14;8.57;;;3.20;;
21697;SDS011;11010;49.548;11.926;2023-04-15T05:14:41;9.63;;;3.47;;
21697;SDS011;11010;49.548;11.926;2023-04-15T05:17:09;8.70;;;3.40;;
21697;SDS011;11010;49.548;11.926;2023-04-15T05:19:37;8.47;;;3.30;;
21697;SDS011;11010;49.548;11.926;2023-04-15T05:22:04;8.30;;;3.20;;
21697;SDS011;11010;49.548;11.926;2023-04-15T05:24:31;9.07;;;3.00;;
21697;SDS011;11010;49.548;11.926;2023-04-15T05:26:58;8.13;;;3.30;;
21697;SDS011;11010;49.548;11.926;2023-04-15T05:29:27;8.93;;;3.10;;
21697;SDS011;11010;49.548;11.926;2023-04-15T05:31:54;8.47;;;3.17;;
21697;SDS011;11010;49.548;11.926;2023-04-15T05:34:22;7.13;;;2.50;;
21697;SDS011;11010;49.548;11.926;2023-04-15T05:36:49;7.53;;;2.67;;
21697;SDS011;11010;49.548;11.926;2023-04-15T05:39:16;8.20;;;2.90;;
21697;SDS011;11010;49.548;11.926;2023-04-15T05:41:43;7.90;;;2.60;;
21697;SDS011;11010;49.548;11.926;2023-04-15T05:44:10;6.87;;;2.10;;
21697;SDS011;11010;49.548;11.926;2023-04-15T05:46:37;7.70;;;2.50;;
21697;SDS011;11010;49.548;11.926;2023-04-15T05:49:04;7.63;;;2.70;;
21697;SDS011;11010;49.548;11.926;2023-04-15T05:51:31;7.87;;;2.63;;
21697;SDS011;11010;49.548;11.926;2023-04-15T05:53:58;6.33;;;2.00;;
21697;SDS011;11010;49.548;11.926;2023-04-15T05:56:25;7.33;;;2.30;;
21697;SDS011;11010;49.548;11.926;2023-04-15T05:58:52;7.30;;;2.37;;
21697;SDS011;11010;49.548;11.926;2023-04-15T06:01:32;6.90;;;2.03;;
21697;SDS011;11010;49.548;11.926;2023-04-15T06:03:59;6.87;;;2.13;;
21697;SDS011;11010;49.548;11.926;2023-04-15T06:06:27;6.37;;;1.70;;
21697;SDS011;11010;49.548;11.926;2023-04-15T06:08:54;7.17;;;1.90;;
21697;SDS011;11010;49.548;11.926;2023-04-15T06:11:21;6.10;;;1.67;;
21697;SDS011;11010;49.548;11.926;2023-04-15T06:13:49;6.47;;;1.60;;
21697;SDS011;11010;49.548;11.926;2023-04-15T06:16:16;5.40;;;1.50;;
21697;SDS011;11010;49.548;11.926;2023-04-15T06:18:43;6.03;;;1.60;;
21697;SDS011;11010;49.548;11.926;2023-04-15T06:21:11;3.50;;;1.03;;
21697;SDS011;11010;49.548;11.926;2023-04-15T06:23:38;4.50;;;1.30;;
21697;SDS011;11010;49.548;11.926;2023-04-15T06:26:06;5.10;;;1.40;;
21697;SDS011;11010;49.548;11.926;2023-04-15T06:28:34;3.97;;;1.20;;
21697;SDS011;11010;49.548;11.926;2023-04-15T06:31:01;4.40;;;1.33;;
21697;SDS011;11010;49.548;11.926;2023-04-15T06:33:28;3.93;;;1.20;;
21697;SDS011;11010;49.548;11.926;2023-04-15T06:35:55;4.80;;;1.33;;
21697;SDS011;11010;49.548;11.926;2023-04-15T06:38:23;5.17;;;1.23;;
21697;SDS011;11010;49.548;11.926;2023-04-15T06:40:52;5.30;;;1.30;;
21697;SDS011;11010;49.548;11.926;2023-04-15T06:43:19;5.47;;;1.20;;
21697;SDS011;11010;49.548;11.926;2023-04-15T06:45:46;4.87;;;1.30;;
21697;SDS011;11010;49.548;11.926;2023-04-15T06:48:13;4.33;;;1.20;;
21697;SDS011;11010;49.548;11.926;2023-04-15T06:50:41;4.57;;;1.30;;
21697;SDS011;11010;49.548;11.926;2023-04-15T06:53:08;4.27;;;1.13;;
21697;SDS011;11010;49.548;11.926;2023-04-15T06:55:35;4.00;;;1.13;;
21697;SDS011;11010;49.548;11.926;2023-04-15T06:58:02;3.57;;;1.10;;
21697;SDS011;11010;49.548;11.926;2023-04-15T07:00:29;4.03;;;1.27;;
21697;SDS011;11010;49.548;11.926;2023-04-15T07:02:56;4.50;;;1.33;;
21697;SDS011;11010;49.548;11.926;2023-04-15T07:05:23;4.97;;;1.27;;
21697;SDS011;11010;49.548;11.926;2023-04-15T07:07:51;4.43;;;1.20;;
21697;SDS011;11010;49.548;11.926;2023-04-15T07:10:18;5.33;;;1.30;;
21697;SDS011;11010;49.548;11.926;2023-04-15T07:12:46;6.90;;;2.03;;
21697;SDS011;11010;49.548;11.926;2023-04-15T07:15:14;4.57;;;1.27;;
21697;SDS011;11010;49.548;11.926;2023-04-15T07:17:41;5.07;;;1.50;;
21697;SDS011;11010;49.548;11.926;2023-04-15T07:20:09;5.47;;;1.47;;
21697;SDS011;11010;49.548;11.926;2023-04-15T07:22:36;5.57;;;1.30;;
21697;SDS011;11010;49.548;11.926;2023-04-15T07:25:03;5.60;;;1.60;;
21697;SDS011;11010;49.548;11.926;2023-04-15T07:27:30;5.23;;;1.43;;
21697;SDS011;11010;49.548;11.926;2023-04-15T07:29:57;5.50;;;1.53;;
21697;SDS011;11010;49.548;11.926;2023-04-15T07:32:25;6.53;;;1.37;;
21697;SDS011;11010;49.548;11.926;2023-04-15T07:34:52;6.03;;;1.57;;
21697;SDS011;11010;49.548;11.926;2023-04-15T07:37:19;5.80;;;1.60;;
21697;SDS011;11010;49.548;11.926;2023-04-15T07:39:46;5.93;;;1.60;;
21697;SDS011;11010;49.548;11.926;2023-04-15T07:42:14;6.43;;;1.80;;
21697;SDS011;11010;49.548;11.926;2023-04-15T07:44:41;6.50;;;1.80;;
21697;SDS011;11010;49.548;11.926;2023-04-15T07:47:08;6.10;;;1.80;;
21697;SDS011;11010;49.548;11.926;2023-04-15T07:49:36;6.40;;;1.90;;
21697;SDS011;11010;49.548;11.926;2023-04-15T07:52:03;7.20;;;1.83;;
21697;SDS011;11010;49.548;11.926;2023-04-15T07:54:30;6.03;;;1.80;;
21697;SDS011;11010;49.548;11.926;2023-04-15T07:56:57;5.53;;;1.60;;
21697;SDS011;11010;49.548;11.926;2023-04-15T07:59:24;6.03;;;1.70;;
21697;SDS011;11010;49.548;11.926;2023-04-15T08:01:53;6.60;;;1.87;;
21697;SDS011;11010;49.548;11.926;2023-04-15T08:04:20;7.03;;;2.00;;
21697;SDS011;11010;49.548;11.926;2023-04-15T08:06:48;5.03;;;1.43;;
21697;SDS011;11010;49.548;11.926;2023-04-15T08:09:15;6.60;;;2.10;;
21697;SDS011;11010;49.548;11.926;2023-04-15T08:11:43;6.67;;;2.10;;
21697;SDS011;11010;49.548;11.926;2023-04-15T08:14:11;6.23;;;1.73;;
21697;SDS011;11010;49.548;11.926;2023-04-15T08:16:38;6.07;;;1.70;;
21697;SDS011;11010;49.548;11.926;2023-04-15T08:19:06;5.90;;;1.80;;
21697;SDS011;11010;49.548;11.926;2023-04-15T08:21:33;6.20;;;1.70;;
21697;SDS011;11010;49.548;11.926;2023-04-15T08:24:00;5.33;;;1.60;;
21697;SDS011;11010;49.548;11.926;2023-04-15T08:26:27;6.30;;;1.87;;
21697;SDS011;11010;49.548;11.926;2023-04-15T08:28:54;5.70;;;1.80;;
21697;SDS011;11010;49.548;11.926;2023-04-15T08:31:21;6.00;;;1.60;;
21697;SDS011;11010;49.548;11.926;2023-04-15T08:33:49;6.27;;;1.80;;
21697;SDS011;11010;49.548;11.926;2023-04-15T08:36:18;5.73;;;1.70;;
21697;SDS011;11010;49.548;11.926;2023-04-15T08:38:45;6.17;;;1.80;;
21697;SDS011;11010;49.548;11.926;2023-04-15T08:41:22;5.73;;;1.60;;
21697;SDS011;11010;49.548;11.926;2023-04-15T08:43:52;6.90;;;1.80;;
21697;SDS011;11010;49.548;11.926;2023-04-15T08:46:22;6.23;;;1.90;;
21697;SDS011;11010;49.548;11.926;2023-04-15T08:48:49;6.20;;;1.83;;
21697;SDS011;11010;49.548;11.926;2023-04-15T08:51:17;6.10;;;1.70;;
21697;SDS011;11010;49.548;11.926;2023-04-15T08:53:45;5.17;;;1.63;;
21697;SDS011;11010;49.548;11.926;2023-04-15T08:56:13;6.73;;;1.80;;
21697;SDS011;11010;49.548;11.926;2023-04-15T08:58:42;5.80;;;1.80;;
21697;SDS011;11010;49.548;11.926;2023-04-15T09:01:13;6.33;;;1.80;;
21697;SDS011;11010;49.548;11.926;2023-04-15T09:03:40;5.90;;;1.60;;
21697;SDS011;11010;49.548;11.926;2023-04-15T09:06:08;5.67;;;1.53;;
21697;SDS011;11010;49.548;11.926;2023-04-15T09:08:35;5.83;;;1.80;;
21697;SDS011;11010;49.548;11.926;2023-04-15T09:11:02;7.10;;;1.87;;
21697;SDS011;11010;49.548;11.926;2023-04-15T09:13:29;6.10;;;1.80;;
21697;SDS011;11010;49.548;11.926;2023-04-15T09:15:57;5.97;;;1.70;;
21697;SDS011;11010;49.548;11.926;2023-04-15T09:18:30;5.60;;;1.60;;
21697;SDS011;11010;49.548;11.926;2023-04-15T09:21:11;5.43;;;1.50;;
21697;SDS011;11010;49.548;11.926;2023-04-15T09:23:41;5.07;;;1.50;;
21697;SDS011;11010;49.548;11.926;2023-04-15T09:26:29;4.77;;;1.40;;
21697;SDS011;11010;49.548;11.926;2023-04-15T09:29:07;5.50;;;1.50;;
21697;SDS011;11010;49.548;11.926;2023-04-15T09:31:35;3.63;;;1.10;;
21697;SDS011;11010;49.548;11.926;2023-04-15T09:34:03;5.83;;;1.30;;
21697;SDS011;11010;49.548;11.926;2023-04-15T09:39:45;5.53;;;1.33;;
21697;SDS011;11010;49.548;11.926;2023-04-15T09:42:16;4.60;;;1.30;;
21697;SDS011;11010;49.548;11.926;2023-04-15T09:44:50;5.17;;;1.50;;
21697;SDS011;11010;49.548;11.926;2023-04-15T09:47:27;5.53;;;1.50;;
21697;SDS011;11010;49.548;11.926;2023-04-15T09:49:58;5.23;;;1.40;;
21697;SDS011;11010;49.548;11.926;2023-04-15T09:52:26;4.33;;;1.30;;
21697;SDS011;11010;49.548;11.926;2023-04-15T09:54:55;5.27;;;1.40;;
21697;SDS011;11010;49.548;11.926;2023-04-15T09:57:23;5.67;;;1.50;;
21697;SDS011;11010;49.548;11.926;2023-04-15T09:59:51;5.90;;;1.60;;
21697;SDS011;11010;49.548;11.926;2023-04-15T10:02:18;5.93;;;1.43;;
21697;SDS011;11010;49.548;11.926;2023-04-15T10:04:49;4.63;;;1.37;;
21697;SDS011;11010;49.548;11.926;2023-04-15T10:07:19;6.40;;;1.80;;
21697;SDS011;11010;49.548;11.926;2023-04-15T10:09:48;5.53;;;1.47;;
21697;SDS011;11010;49.548;11.926;2023-04-15T10:12:18;6.50;;;1.83;;
21697;SDS011;11010;49.548;11.926;2023-04-15T10:14:51;6.20;;;1.70;;
21697;SDS011;11010;49.548;11.926;2023-04-15T10:17:22;5.73;;;1.60;;
21697;SDS011;11010;49.548;11.926;2023-04-15T10:19:52;6.50;;;1.83;;
21697;SDS011;11010;49.548;11.926;2023-04-15T10:22:21;5.97;;;1.60;;
21697;SDS011;11010;49.548;11.926;2023-04-15T10:24:50;6.13;;;1.70;;
21697;SDS011;11010;49.548;11.926;2023-04-15T10:27:17;6.00;;;1.70;;
21697;SDS011;11010;49.548;11.926;2023-04-15T10:29:45;6.40;;;1.80;;
21697;SDS011;11010;49.548;11.926;2023-04-15T10:32:15;7.27;;;1.70;;
21697;SDS011;11010;49.548;11.926;2023-04-15T10:34:44;6.53;;;1.83;;
21697;SDS011;11010;49.548;11.926;2023-04-15T10:37:18;5.83;;;1.60;;
21697;SDS011;11010;49.548;11.926;2023-04-15T10:39:59;6.37;;;1.93;;
21697;SDS011;11010;49.548;11.926;2023-04-15T10:42:32;5.90;;;1.67;;
21697;SDS011;11010;49.548;11.926;2023-04-15T10:45:00;6.17;;;1.90;;
21697;SDS011;11010;49.548;11.926;2023-04-15T10:47:27;6.20;;;1.90;;
21697;SDS011;11010;49.548;11.926;2023-04-15T10:49:58;6.43;;;1.80;;
21697;SDS011;11010;49.548;11.926;2023-04-15T10:52:27;6.07;;;1.80;;
21697;SDS011;11010;49.548;11.926;2023-04-15T10:55:18;6.60;;;1.97;;
21697;SDS011;11010;49.548;11.926;2023-04-15T10:57:46;8.30;;;1.83;;
21697;SDS011;11010;49.548;11.926;2023-04-15T11:00:17;6.17;;;1.87;;
21697;SDS011;11010;49.548;11.926;2023-04-15T11:02:55;6.87;;;1.73;;
21697;SDS011;11010;49.548;11.926;2023-04-15T11:08:16;6.07;;;1.87;;
21697;SDS011;11010;49.548;11.926;2023-04-15T11:13:15;6.20;;;1.70;;
21697;SDS011;11010;49.548;11.926;2023-04-15T11:15:44;6.00;;;1.70;;
21697;SDS011;11010;49.548;11.926;2023-04-15T11:20:41;6.47;;;1.90;;
21697;SDS011;11010;49.548;11.926;2023-04-15T11:23:14;7.40;;;1.93;;
21697;SDS011;11010;49.548;11.926;2023-04-15T11:25:43;6.57;;;1.90;;
21697;SDS011;11010;49.548;11.926;2023-04-15T11:28:11;6.47;;;1.90;;
21697;SDS011;11010;49.548;11.926;2023-04-15T11:30:39;6.20;;;1.80;;
21697;SDS011;11010;49.548;11.926;2023-04-15T11:33:08;7.77;;;1.90;;
21697;SDS011;11010;49.548;11.926;2023-04-15T11:35:36;6.50;;;1.87;;
21697;SDS011;11010;49.548;11.926;2023-04-15T11:38:04;5.83;;;1.80;;
21697;SDS011;11010;49.548;11.926;2023-04-15T11:40:34;6.50;;;1.87;;
21697;SDS011;11010;49.548;11.926;2023-04-15T11:45:34;6.17;;;1.83;;
21697;SDS011;11010;49.548;11.926;2023-04-15T11:50:33;6.53;;;2.10;;
21697;SDS011;11010;49.548;11.926;2023-04-15T11:53:01;6.23;;;1.90;;
21697;SDS011;11010;49.548;11.926;2023-04-15T11:55:40;6.27;;;1.70;;
21697;SDS011;11010;49.548;11.926;2023-04-15T12:00:49;6.87;;;2.00;;
21697;SDS011;11010;49.548;11.926;2023-04-15T12:03:41;5.80;;;1.70;;
21697;SDS011;11010;49.548;11.926;2023-04-15T12:11:36;6.47;;;1.80;;
21697;SDS011;11010;49.548;11.926;2023-04-15T12:14:11;8.00;;;2.20;;
21697;SDS011;11010;49.548;11.926;2023-04-15T12:16:52;6.50;;;2.03;;
21697;SDS011;11010;49.548;11.926;2023-04-15T12:19:27;6.43;;;1.93;;
21697;SDS011;11010;49.548;11.926;2023-04-15T12:21:57;6.67;;;2.03;;
21697;SDS011;11010;49.548;11.926;2023-04-15T12:24:26;7.30;;;2.00;;
21697;SDS011;11010;49.548;11.926;2023-04-15T12:26:56;7.17;;;2.20;;
21697;SDS011;11010;49.548;11.926;2023-04-15T12:29:28;8.40;;;1.90;;
21697;SDS011;11010;49.548;11.926;2023-04-15T12:32:03;6.60;;;1.90;;
21697;SDS011;11010;49.548;11.926;2023-04-15T12:34:34;6.33;;;1.93;;
21697;SDS011;11010;49.548;11.926;2023-04-15T12:37:06;6.00;;;1.87;;
21697;SDS011;11010;49.548;11.926;2023-04-15T12:39:38;6.70;;;2.00;;
21697;SDS011;11010;49.548;11.926;2023-04-15T12:42:07;6.43;;;2.00;;
21697;SDS011;11010;49.548;11.926;2023-04-15T12:44:35;5.03;;;1.60;;
21697;SDS011;11010;49.548;11.926;2023-04-15T12:47:03;6.73;;;2.07;;
21697;SDS011;11010;49.548;11.926;2023-04-15T12:49:31;6.67;;;1.90;;
21697;SDS011;11010;49.548;11.926;2023-04-15T12:51:58;6.07;;;1.90;;
21697;SDS011;11010;49.548;11.926;2023-04-15T12:54:27;7.53;;;2.10;;
21697;SDS011;11010;49.548;11.926;2023-04-15T13:14:56;5.63;;;1.73;;
21697;SDS011;11010;49.548;11.926;2023-04-15T13:17:23;5.30;;;1.73;;
21697;SDS011;11010;49.548;11.926;2023-04-15T13:19:51;5.50;;;1.60;;
21697;SDS011;11010;49.548;11.926;2023-04-15T13:22:18;6.10;;;1.80;;
21697;SDS011;11010;49.548;11.926;2023-04-15T13:24:45;6.00;;;1.70;;
21697;SDS011;11010;49.548;11.926;2023-04-15T13:27:12;6.50;;;1.90;;
21697;SDS011;11010;49.548;11.926;2023-04-15T13:29:39;7.47;;;2.20;;
21697;SDS011;11010;49.548;11.926;2023-04-15T13:32:06;6.40;;;1.77;;
21697;SDS011;11010;49.548;11.926;2023-04-15T13:34:33;7.17;;;2.20;;
21697;SDS011;11010;49.548;11.926;2023-04-15T13:37:07;5.77;;;1.90;;
21697;SDS011;11010;49.548;11.926;2023-04-15T13:39:35;6.37;;;1.90;;
21697;SDS011;11010;49.548;11.926;2023-04-15T13:42:02;6.70;;;1.80;;
21697;SDS011;11010;49.548;11.926;2023-04-15T13:44:29;6.87;;;1.90;;
21697;SDS011;11010;49.548;11.926;2023-04-15T13:46:56;7.03;;;2.20;;
21697;SDS011;11010;49.548;11.926;2023-04-15T13:49:23;7.03;;;2.13;;
21697;SDS011;11010;49.548;11.926;2023-04-15T13:51:50;7.00;;;2.10;;
21697;SDS011;11010;49.548;11.926;2023-04-15T13:54:17;6.30;;;1.87;;
21697;SDS011;11010;49.548;11.926;2023-04-15T13:56:44;6.03;;;1.97;;
21697;SDS011;11010;49.548;11.926;2023-04-15T13:59:12;6.70;;;2.10;;
21697;SDS011;11010;49.548;11.926;2023-04-15T14:01:39;6.30;;;1.97;;
21697;SDS011;11010;49.548;11.926;2023-04-15T14:04:06;5.90;;;1.77;;
21697;SDS011;11010;49.548;11.926;2023-04-15T14:06:34;6.53;;;2.03;;
21697;SDS011;11010;49.548;11.926;2023-04-15T14:09:01;7.37;;;2.20;;
21697;SDS011;11010;49.548;11.926;2023-04-15T14:11:29;7.23;;;2.10;;
21697;SDS011;11010;49.548;11.926;2023-04-15T14:13:57;5.97;;;2.00;;
21697;SDS011;11010;49.548;11.926;2023-04-15T14:16:24;6.80;;;2.10;;
21697;SDS011;11010;49.548;11.926;2023-04-15T14:18:51;6.40;;;2.20;;
21697;SDS011;11010;49.548;11.926;2023-04-15T14:21:19;6.60;;;2.10;;
21697;SDS011;11010;49.548;11.926;2023-04-15T14:23:46;6.50;;;1.90;;
21697;SDS011;11010;49.548;11.926;2023-04-15T14:26:13;6.30;;;1.90;;
21697;SDS011;11010;49.548;11.926;2023-04-15T14:28:40;6.87;;;2.07;;
21697;SDS011;11010;49.548;11.926;2023-04-15T14:31:10;7.20;;;2.07;;
21697;SDS011;11010;49.548;11.926;2023-04-15T14:33:37;6.13;;;1.90;;
21697;SDS011;11010;49.548;11.926;2023-04-15T14:36:05;6.77;;;2.00;;
21697;SDS011;11010;49.548;11.926;2023-04-15T14:38:33;7.67;;;2.10;;
21697;SDS011;11010;49.548;11.926;2023-04-15T14:41:05;6.77;;;2.13;;
21697;SDS011;11010;49.548;11.926;2023-04-15T14:43:33;6.43;;;1.93;;
21697;SDS011;11010;49.548;11.926;2023-04-15T14:46:01;7.20;;;2.20;;
21697;SDS011;11010;49.548;11.926;2023-04-15T14:48:29;7.00;;;2.27;;
21697;SDS011;11010;49.548;11.926;2023-04-15T14:50:58;7.27;;;2.30;;
21697;SDS011;11010;49.548;11.926;2023-04-15T14:53:25;8.47;;;2.30;;
21697;SDS011;11010;49.548;11.926;2023-04-15T14:55:52;7.10;;;2.50;;
21697;SDS011;11010;49.548;11.926;2023-04-15T14:58:19;7.37;;;2.20;;
21697;SDS011;11010;49.548;11.926;2023-04-15T15:00:46;6.87;;;2.20;;
21697;SDS011;11010;49.548;11.926;2023-04-15T15:03:13;7.70;;;2.57;;
21697;SDS011;11010;49.548;11.926;2023-04-15T15:05:42;7.40;;;1.97;;
21697;SDS011;11010;49.548;11.926;2023-04-15T15:08:11;8.00;;;2.60;;
21697;SDS011;11010;49.548;11.926;2023-04-15T15:10:39;6.90;;;2.27;;
21697;SDS011;11010;49.548;11.926;2023-04-15T15:13:15;7.80;;;2.40;;
21697;SDS011;11010;49.548;11.926;2023-04-15T15:15:44;7.33;;;2.70;;
21697;SDS011;11010;49.548;11.926;2023-04-15T15:18:11;7.43;;;2.50;;
21697;SDS011;11010;49.548;11.926;2023-04-15T15:20:38;7.93;;;2.33;;
21697;SDS011;11010;49.548;11.926;2023-04-15T15:23:06;7.80;;;2.53;;
21697;SDS011;11010;49.548;11.926;2023-04-15T15:25:33;7.57;;;2.33;;